»·PEaware :: UAL1399 KYKM-KPDX

UAL1399 :: KYKM-KPDX

FLIGHT INFORMATION

Flight Status: Arrived
Operator:
United Airlines
More flights by this operator :: More flights under this callsign
Pilot: David C. (16084)
Aircraft: SAAB 340
(SF34)
More flights by this aircraft type
Origin: KYKM Yakima Air Term/Mcallister
United States
Destination: KPDX Portland Intl
United States
More flights between these airports :: More routes between these airports
Route: NACHES4 LTJ YENTL HHOOD4
File this flight plan on PilotEdge
Remarks:
Altitude:
(Current/Filed)
14,000ft
Speed:
(Current/Filed)
285kts
Departed: 20-Sep-18 10:07 AM
Arrived: 20-Sep-18 10:49 AM
Distance/Time
Traveled:
103nm/0:42
Distance/Time
To Go:
Arrived

Flight Plot

Page will automatically refresh every two minutes.

Flight plan parsing failed; only flown route is shown


Map Options




Map Legend


Flown Route
Filed Route
Departure Airport
Arrival Airport
Navaid (VOR, NDB)
Fix

Horizontal Profiles

Position Reports

Time Latitude Longitude Heading Altitude Ground
Speed
20-Sep-18 09:59 46.569418 -120.539340 181 1104ft 0kts
20-Sep-18 10:00 46.569418 -120.539340 181 1104ft 0kts
20-Sep-18 10:01 46.569418 -120.539340 181 1104ft 0kts
20-Sep-18 10:02 46.569418 -120.539340 181 1104ft 0kts
20-Sep-18 10:03 46.569327 -120.539343 181 1104ft 4kts
20-Sep-18 10:04 46.567596 -120.535181 105 1104ft 19kts
20-Sep-18 10:05 46.566537 -120.531537 152 1104ft 0kts
20-Sep-18 10:06 46.566537 -120.531537 152 1104ft 0kts
20-Sep-18 10:07 46.566537 -120.531537 152 1104ft 0kts
20-Sep-18 10:08 46.565640 -120.531663 242 1104ft 7kts
20-Sep-18 10:09 46.571427 -120.555433 286 1382ft 144kts
20-Sep-18 10:10 46.607851 -120.594946 335 3624ft 181kts
20-Sep-18 10:11 46.654599 -120.621820 335 5683ft 185kts
20-Sep-18 10:12 46.702845 -120.648785 335 7511ft 188kts
20-Sep-18 10:13 46.751841 -120.675651 335 9176ft 189kts
20-Sep-18 10:14 46.795521 -120.713308 298 10016ft 210kts
20-Sep-18 10:15 46.783748 -120.782832 215 11840ft 192kts
20-Sep-18 10:16 46.731094 -120.800536 197 13321ft 195kts
20-Sep-18 10:17 46.675641 -120.817287 197 14009ft 224kts
20-Sep-18 10:18 46.610239 -120.836909 196 13932ft 254kts
20-Sep-18 10:19 46.540048 -120.857866 196 13918ft 259kts
20-Sep-18 10:20 46.469534 -120.878882 196 13918ft 261kts
20-Sep-18 10:21 46.398516 -120.899996 196 13918ft 261kts
20-Sep-18 10:22 46.327453 -120.921068 196 13918ft 261kts
20-Sep-18 10:23 46.256415 -120.942078 196 13918ft 261kts
20-Sep-18 10:24 46.185191 -120.963085 196 13926ft 261kts
20-Sep-18 10:25 46.115103 -120.983702 196 13939ft 261kts
20-Sep-18 10:26 46.043928 -121.004587 196 13946ft 262kts
20-Sep-18 10:27 45.972609 -121.025459 196 13946ft 263kts
20-Sep-18 10:28 45.912784 -121.042926 196 13946ft 263kts
20-Sep-18 10:29 45.833459 -121.066024 196 13943ft 264kts
20-Sep-18 10:30 45.761658 -121.086875 196 13943ft 264kts
20-Sep-18 10:31 45.710690 -121.125618 240 13941ft 245kts
20-Sep-18 10:32 45.674608 -121.225376 251 13903ft 244kts
20-Sep-18 10:33 45.650968 -121.299046 251 13036ft 241kts
20-Sep-18 10:34 45.617914 -121.402878 250 11872ft 249kts
20-Sep-18 10:35 45.596430 -121.476709 253 11018ft 239kts
20-Sep-18 10:36 45.572356 -121.562616 253 10018ft 235kts
20-Sep-18 10:37 45.544937 -121.660148 252 8970ft 230kts
20-Sep-18 10:38 45.530750 -121.728082 274 8953ft 203kts
20-Sep-18 10:39 45.532916 -121.806218 277 8974ft 194kts
20-Sep-18 10:40 45.536155 -121.883520 277 8156ft 194kts
20-Sep-18 10:41 45.539466 -121.961534 276 7919ft 201kts
20-Sep-18 10:42 45.538282 -122.043551 251 7209ft 231kts
20-Sep-18 10:43 45.505692 -122.114730 237 6220ft 220kts
20-Sep-18 10:44 45.476295 -122.185351 265 5092ft 192kts
20-Sep-18 10:45 45.477290 -122.257370 274 3988ft 180kts
20-Sep-18 10:46 45.488166 -122.323952 300 3031ft 171kts
20-Sep-18 10:47 45.511400 -122.382468 299 2927ft 181kts
20-Sep-18 10:48 45.536388 -122.445951 299 1985ft 171kts
20-Sep-18 10:49 45.558331 -122.502165 299 1109ft 144kts
20-Sep-18 10:50 45.575808 -122.546874 299 425ft 129kts
20-Sep-18 10:51 45.590016 -122.583474 290 34ft 31kts
20-Sep-18 10:52 45.590294 -122.588524 263 34ft 12kts
20-Sep-18 10:53 45.590190 -122.591608 209 34ft 0kts
20-Sep-18 10:54 45.590190 -122.591607 209 34ft 0kts

Navigation Log

Ident Type
Flight plan parsing failed, navigation log unavailable